sensor_id;sensor_type;location;lat;lon;timestamp;pressure;altitude;pressure_sealevel;temperature;humidity
69214;BME280;56325;47.030;18.518;2023-03-20T00:01:17;100453.06;;;11.38;65.97
69214;BME280;56325;47.030;18.518;2023-03-20T00:03:52;100455.22;;;11.15;66.53
69214;BME280;56325;47.030;18.518;2023-03-20T00:06:27;100458.13;;;11.12;66.70
69214;BME280;56325;47.030;18.518;2023-03-20T00:09:02;100455.22;;;11.15;66.52
69214;BME280;56325;47.030;18.518;2023-03-20T00:11:45;100450.00;;;11.27;66.30
69214;BME280;56325;47.030;18.518;2023-03-20T00:14:22;100452.44;;;11.34;65.93
69214;BME280;56325;47.030;18.518;2023-03-20T00:16:57;100450.03;;;11.18;66.78
69214;BME280;56325;47.030;18.518;2023-03-20T00:19:32;100435.62;;;11.04;67.46
69214;BME280;56325;47.030;18.518;2023-03-20T00:22:08;100435.97;;;11.25;66.39
69214;BME280;56325;47.030;18.518;2023-03-20T00:24:43;100436.84;;;11.40;65.38
69214;BME280;56325;47.030;18.518;2023-03-20T00:27:17;100435.31;;;11.30;65.40
69214;BME280;56325;47.030;18.518;2023-03-20T00:29:52;100443.28;;;11.37;64.71
69214;BME280;56325;47.030;18.518;2023-03-20T00:32:28;100447.56;;;11.29;64.82
69214;BME280;56325;47.030;18.518;2023-03-20T00:35:16;100448.62;;;11.40;64.40
69214;BME280;56325;47.030;18.518;2023-03-20T00:37:53;100443.87;;;11.41;63.96
69214;BME280;56325;47.030;18.518;2023-03-20T00:40:30;100445.44;;;11.24;64.67
69214;BME280;56325;47.030;18.518;2023-03-20T00:43:04;100450.16;;;11.32;64.37
69214;BME280;56325;47.030;18.518;2023-03-20T00:45:39;100452.62;;;11.21;64.37
69214;BME280;56325;47.030;18.518;2023-03-20T00:48:15;100449.09;;;11.21;64.26
69214;BME280;56325;47.030;18.518;2023-03-20T00:50:49;100450.75;;;11.27;62.96
69214;BME280;56325;47.030;18.518;2023-03-20T00:53:25;100444.81;;;11.29;63.19
69214;BME280;56325;47.030;18.518;2023-03-20T00:56:00;100456.28;;;11.18;62.42
69214;BME280;56325;47.030;18.518;2023-03-20T00:58:35;100447.56;;;11.10;62.61
69214;BME280;56325;47.030;18.518;2023-03-20T01:01:10;100443.56;;;11.02;62.51
69214;BME280;56325;47.030;18.518;2023-03-20T01:03:45;100446.94;;;10.97;62.44
69214;BME280;56325;47.030;18.518;2023-03-20T01:06:20;100446.44;;;10.80;62.66
69214;BME280;56325;47.030;18.518;2023-03-20T01:08:56;100445.38;;;10.87;61.77
69214;BME280;56325;47.030;18.518;2023-03-20T01:11:31;100451.63;;;10.78;62.00
69214;BME280;56325;47.030;18.518;2023-03-20T01:14:11;100438.94;;;10.81;61.79
69214;BME280;56325;47.030;18.518;2023-03-20T01:16:46;100439.56;;;10.76;61.95
69214;BME280;56325;47.030;18.518;2023-03-20T01:19:21;100441.56;;;10.84;61.41
69214;BME280;56325;47.030;18.518;2023-03-20T01:21:55;100446.28;;;10.75;61.34
69214;BME280;56325;47.030;18.518;2023-03-20T01:24:31;100438.59;;;10.61;61.43
69214;BME280;56325;47.030;18.518;2023-03-20T01:27:10;100441.66;;;10.63;61.37
69214;BME280;56325;47.030;18.518;2023-03-20T01:29:47;100433.09;;;10.61;61.07
69214;BME280;56325;47.030;18.518;2023-03-20T01:32:22;100430.94;;;10.56;61.49
69214;BME280;56325;47.030;18.518;2023-03-20T01:34:57;100430.34;;;10.61;61.95
69214;BME280;56325;47.030;18.518;2023-03-20T01:37:31;100438.28;;;10.59;61.97
69214;BME280;56325;47.030;18.518;2023-03-20T01:40:16;100435.72;;;10.73;61.00
69214;BME280;56325;47.030;18.518;2023-03-20T01:42:53;100434.34;;;10.69;60.68
69214;BME280;56325;47.030;18.518;2023-03-20T01:45:31;100436.50;;;10.74;60.63
69214;BME280;56325;47.030;18.518;2023-03-20T01:48:14;100434.03;;;10.76;60.57
69214;BME280;56325;47.030;18.518;2023-03-20T01:50:49;100436.78;;;10.67;60.49
69214;BME280;56325;47.030;18.518;2023-03-20T01:53:26;100425.47;;;10.65;60.66
69214;BME280;56325;47.030;18.518;2023-03-20T01:56:04;100434.63;;;10.62;60.51
69214;BME280;56325;47.030;18.518;2023-03-20T01:58:41;100434.28;;;10.50;60.84
69214;BME280;56325;47.030;18.518;2023-03-20T02:01:18;100442.03;;;10.34;61.46
69214;BME280;56325;47.030;18.518;2023-03-20T02:03:53;100439.28;;;10.34;61.44
69214;BME280;56325;47.030;18.518;2023-03-20T02:06:30;100448.75;;;10.33;61.51
69214;BME280;56325;47.030;18.518;2023-03-20T02:09:06;100451.00;;;10.25;61.74
69214;BME280;56325;47.030;18.518;2023-03-20T02:11:44;100443.38;;;10.29;61.55
69214;BME280;56325;47.030;18.518;2023-03-20T02:14:21;100439.38;;;10.21;62.28
69214;BME280;56325;47.030;18.518;2023-03-20T02:16:56;100438.22;;;10.09;62.78
69214;BME280;56325;47.030;18.518;2023-03-20T02:19:37;100442.94;;;10.09;62.71
69214;BME280;56325;47.030;18.518;2023-03-20T02:26:05;100443.16;;;9.93;62.99
69214;BME280;56325;47.030;18.518;2023-03-20T02:38:47;100433.28;;;9.73;63.98
69214;BME280;56325;47.030;18.518;2023-03-20T02:41:29;100438.13;;;9.69;64.32
69214;BME280;56325;47.030;18.518;2023-03-20T02:44:11;100450.13;;;9.63;64.60
69214;BME280;56325;47.030;18.518;2023-03-20T02:46:54;100439.03;;;9.66;64.54
69214;BME280;56325;47.030;18.518;2023-03-20T02:49:48;100442.97;;;9.65;64.64
69214;BME280;56325;47.030;18.518;2023-03-20T02:52:32;100442.09;;;9.68;64.22
69214;BME280;56325;47.030;18.518;2023-03-20T02:55:16;100441.13;;;9.84;63.88
69214;BME280;56325;47.030;18.518;2023-03-20T02:57:57;100437.44;;;9.56;65.03
69214;BME280;56325;47.030;18.518;2023-03-20T03:00:38;100442.81;;;9.38;65.82
69214;BME280;56325;47.030;18.518;2023-03-20T03:03:17;100439.41;;;9.34;66.16
69214;BME280;56325;47.030;18.518;2023-03-20T03:05:57;100433.72;;;9.28;66.18
69214;BME280;56325;47.030;18.518;2023-03-20T03:08:36;100441.59;;;9.39;66.07
69214;BME280;56325;47.030;18.518;2023-03-20T03:11:14;100424.09;;;9.45;65.72
69214;BME280;56325;47.030;18.518;2023-03-20T03:13:52;100435.53;;;9.44;65.69
69214;BME280;56325;47.030;18.518;2023-03-20T03:16:29;100437.25;;;9.29;66.20
69214;BME280;56325;47.030;18.518;2023-03-20T03:19:07;100436.03;;;9.30;66.26
69214;BME280;56325;47.030;18.518;2023-03-20T03:21:42;100439.34;;;9.25;66.49
69214;BME280;56325;47.030;18.518;2023-03-20T03:24:28;100438.78;;;9.30;66.60
69214;BME280;56325;47.030;18.518;2023-03-20T03:27:17;100438.66;;;9.33;66.36
69214;BME280;56325;47.030;18.518;2023-03-20T03:29:54;100437.28;;;9.16;66.88
69214;BME280;56325;47.030;18.518;2023-03-20T03:32:32;100438.81;;;9.17;66.98
69214;BME280;56325;47.030;18.518;2023-03-20T03:35:13;100448.19;;;8.94;67.53
69214;BME280;56325;47.030;18.518;2023-03-20T03:37:54;100446.44;;;8.87;67.21
69214;BME280;56325;47.030;18.518;2023-03-20T03:40:35;100445.03;;;8.83;67.54
69214;BME280;56325;47.030;18.518;2023-03-20T03:43:17;100442.19;;;8.86;67.39
69214;BME280;56325;47.030;18.518;2023-03-20T03:45:57;100438.00;;;8.82;67.36
69214;BME280;56325;47.030;18.518;2023-03-20T03:48:36;100442.31;;;8.70;67.33
69214;BME280;56325;47.030;18.518;2023-03-20T03:51:16;100447.72;;;8.61;67.64
69214;BME280;56325;47.030;18.518;2023-03-20T03:53:55;100450.56;;;8.58;67.36
69214;BME280;56325;47.030;18.518;2023-03-20T03:56:34;100453.72;;;8.69;67.32
69214;BME280;56325;47.030;18.518;2023-03-20T03:59:20;100452.66;;;8.66;67.27
69214;BME280;56325;47.030;18.518;2023-03-20T04:01:59;100454.91;;;8.68;67.04
69214;BME280;56325;47.030;18.518;2023-03-20T04:04:41;100455.56;;;8.72;67.23
69214;BME280;56325;47.030;18.518;2023-03-20T04:07:16;100469.06;;;8.79;67.05
69214;BME280;56325;47.030;18.518;2023-03-20T04:09:50;100462.69;;;8.82;66.93
69214;BME280;56325;47.030;18.518;2023-03-20T04:12:34;100457.91;;;8.61;67.51
69214;BME280;56325;47.030;18.518;2023-03-20T04:15:13;100455.56;;;8.72;67.21
69214;BME280;56325;47.030;18.518;2023-03-20T04:17:48;100472.91;;;8.81;66.87
69214;BME280;56325;47.030;18.518;2023-03-20T04:20:23;100472.44;;;8.83;66.83
69214;BME280;56325;47.030;18.518;2023-03-20T04:22:58;100465.31;;;8.85;66.52
69214;BME280;56325;47.030;18.518;2023-03-20T04:25:34;100467.28;;;8.85;66.38
69214;BME280;56325;47.030;18.518;2023-03-20T04:28:08;100477.50;;;8.84;66.28
69214;BME280;56325;47.030;18.518;2023-03-20T04:30:51;100478.59;;;8.87;65.91
69214;BME280;56325;47.030;18.518;2023-03-20T04:33:26;100471.06;;;8.66;66.50
69214;BME280;56325;47.030;18.518;2023-03-20T04:36:02;100482.66;;;8.70;66.39
69214;BME280;56325;47.030;18.518;2023-03-20T04:38:38;100475.22;;;8.70;66.04
69214;BME280;56325;47.030;18.518;2023-03-20T04:41:13;100488.59;;;8.43;66.63
69214;BME280;56325;47.030;18.518;2023-03-20T04:43:49;100485.81;;;8.30;67.20
69214;BME280;56325;47.030;18.518;2023-03-20T04:46:25;100473.91;;;8.62;77.72
69214;BME280;56325;47.030;18.518;2023-03-20T04:49:00;100466.22;;;11.70;94.18
69214;BME280;56325;47.030;18.518;2023-03-20T04:51:35;100466.00;;;10.42;73.09
69214;BME280;56325;47.030;18.518;2023-03-20T04:54:09;100471.22;;;9.88;70.10
69214;BME280;56325;47.030;18.518;2023-03-20T04:56:44;100476.75;;;9.31;67.48
69214;BME280;56325;47.030;18.518;2023-03-20T04:59:19;100480.09;;;9.13;68.69
69214;BME280;56325;47.030;18.518;2023-03-20T05:01:56;100485.34;;;9.08;68.47
69214;BME280;56325;47.030;18.518;2023-03-20T05:04:31;100485.66;;;8.63;67.93
69214;BME280;56325;47.030;18.518;2023-03-20T05:07:06;100494.37;;;8.32;68.54
69214;BME280;56325;47.030;18.518;2023-03-20T05:09:41;100491.31;;;8.30;68.90
69214;BME280;56325;47.030;18.518;2023-03-20T05:12:18;100499.84;;;8.19;68.62
69214;BME280;56325;47.030;18.518;2023-03-20T05:14:56;100502.81;;;8.25;68.67
69214;BME280;56325;47.030;18.518;2023-03-20T05:17:32;100505.34;;;8.32;68.70
69214;BME280;56325;47.030;18.518;2023-03-20T05:20:08;100511.94;;;8.35;68.64
69214;BME280;56325;47.030;18.518;2023-03-20T05:22:43;100514.69;;;8.35;68.28
69214;BME280;56325;47.030;18.518;2023-03-20T05:25:21;100510.41;;;8.34;68.47
69214;BME280;56325;47.030;18.518;2023-03-20T05:27:56;100515.97;;;8.30;68.34
69214;BME280;56325;47.030;18.518;2023-03-20T05:30:32;100502.03;;;11.25;95.37
69214;BME280;56325;47.030;18.518;2023-03-20T05:33:08;100510.34;;;10.54;73.64
69214;BME280;56325;47.030;18.518;2023-03-20T05:35:43;100504.16;;;9.88;68.08
69214;BME280;56325;47.030;18.518;2023-03-20T05:38:19;100511.25;;;9.19;67.39
69214;BME280;56325;47.030;18.518;2023-03-20T05:40:55;100520.12;;;9.24;79.30
69214;BME280;56325;47.030;18.518;2023-03-20T05:43:32;100517.97;;;11.94;89.71
69214;BME280;56325;47.030;18.518;2023-03-20T05:46:06;100519.56;;;10.60;66.85
69214;BME280;56325;47.030;18.518;2023-03-20T05:48:43;100523.97;;;9.82;66.61
69214;BME280;56325;47.030;18.518;2023-03-20T05:51:18;100529.41;;;9.39;66.36
69214;BME280;56325;47.030;18.518;2023-03-20T05:53:52;100536.34;;;9.31;66.13
69214;BME280;56325;47.030;18.518;2023-03-20T05:56:27;100530.56;;;9.03;67.98
69214;BME280;56325;47.030;18.518;2023-03-20T05:59:02;100533.44;;;9.00;68.14
69214;BME280;56325;47.030;18.518;2023-03-20T06:01:37;100538.94;;;8.87;67.27
69214;BME280;56325;47.030;18.518;2023-03-20T06:04:14;100545.41;;;8.80;67.97
69214;BME280;56325;47.030;18.518;2023-03-20T06:06:49;100539.38;;;8.47;67.12
69214;BME280;56325;47.030;18.518;2023-03-20T06:09:23;100540.69;;;8.43;68.39
69214;BME280;56325;47.030;18.518;2023-03-20T06:11:58;100547.06;;;8.65;66.90
69214;BME280;56325;47.030;18.518;2023-03-20T06:14:33;100550.25;;;8.64;67.06
69214;BME280;56325;47.030;18.518;2023-03-20T06:17:09;100554.84;;;8.54;66.37
69214;BME280;56325;47.030;18.518;2023-03-20T06:19:45;100556.81;;;8.53;66.97
69214;BME280;56325;47.030;18.518;2023-03-20T06:22:19;100552.97;;;8.22;67.96
69214;BME280;56325;47.030;18.518;2023-03-20T06:24:54;100557.91;;;8.14;68.80
69214;BME280;56325;47.030;18.518;2023-03-20T06:27:33;100545.19;;;10.04;91.75
69214;BME280;56325;47.030;18.518;2023-03-20T06:30:08;100536.34;;;11.78;91.33
69214;BME280;56325;47.030;18.518;2023-03-20T06:32:44;100543.62;;;11.54;71.28
69214;BME280;56325;47.030;18.518;2023-03-20T06:35:21;100541.75;;;10.12;63.99
69214;BME280;56325;47.030;18.518;2023-03-20T06:37:56;100538.97;;;9.69;64.83
69214;BME280;56325;47.030;18.518;2023-03-20T06:40:31;100542.31;;;9.04;65.91
69214;BME280;56325;47.030;18.518;2023-03-20T06:43:05;100544.97;;;8.82;66.91
69214;BME280;56325;47.030;18.518;2023-03-20T06:45:41;100541.44;;;8.94;66.65
69214;BME280;56325;47.030;18.518;2023-03-20T06:48:15;100553.50;;;8.84;67.44
69214;BME280;56325;47.030;18.518;2023-03-20T06:50:55;100561.06;;;8.80;67.03
69214;BME280;56325;47.030;18.518;2023-03-20T06:53:36;100563.19;;;8.63;67.21
69214;BME280;56325;47.030;18.518;2023-03-20T06:56:11;100557.56;;;8.67;67.20
69214;BME280;56325;47.030;18.518;2023-03-20T06:58:46;100563.38;;;8.69;67.69
69214;BME280;56325;47.030;18.518;2023-03-20T07:02:54;100564.44;;;9.35;66.14
69214;BME280;56325;47.030;18.518;2023-03-20T07:05:30;100564.44;;;9.35;66.14
69214;BME280;56325;47.030;18.518;2023-03-20T07:08:05;100565.69;;;9.08;67.51
69214;BME280;56325;47.030;18.518;2023-03-20T07:10:40;100567.72;;;9.42;67.04
69214;BME280;56325;47.030;18.518;2023-03-20T07:13:16;100568.28;;;9.37;67.31
69214;BME280;56325;47.030;18.518;2023-03-20T07:15:52;100572.28;;;9.58;66.70
69214;BME280;56325;47.030;18.518;2023-03-20T07:18:38;100562.94;;;9.90;66.01
69214;BME280;56325;47.030;18.518;2023-03-20T07:21:16;100551.75;;;9.84;65.68
69214;BME280;56325;47.030;18.518;2023-03-20T07:23:51;100558.41;;;9.96;64.84
69214;BME280;56325;47.030;18.518;2023-03-20T07:26:26;100556.88;;;10.17;64.46
69214;BME280;56325;47.030;18.518;2023-03-20T07:29:01;100560.13;;;10.46;62.15
69214;BME280;56325;47.030;18.518;2023-03-20T07:31:36;100560.97;;;10.65;61.77
69214;BME280;56325;47.030;18.518;2023-03-20T07:34:12;100565.22;;;10.88;61.05
69214;BME280;56325;47.030;18.518;2023-03-20T07:36:48;100562.34;;;11.01;59.93
69214;BME280;56325;47.030;18.518;2023-03-20T07:39:23;100561.34;;;11.16;59.11
69214;BME280;56325;47.030;18.518;2023-03-20T07:41:58;100576.19;;;11.37;57.91
69214;BME280;56325;47.030;18.518;2023-03-20T07:44:37;100562.13;;;12.87;75.58
69214;BME280;56325;47.030;18.518;2023-03-20T07:47:13;100570.78;;;12.71;56.68
69214;BME280;56325;47.030;18.518;2023-03-20T07:49:48;100575.47;;;12.28;57.11
69214;BME280;56325;47.030;18.518;2023-03-20T07:52:23;100569.03;;;12.31;58.13
69214;BME280;56325;47.030;18.518;2023-03-20T07:54:57;100577.31;;;13.16;75.17
69214;BME280;56325;47.030;18.518;2023-03-20T07:57:32;100571.69;;;13.82;63.78
69214;BME280;56325;47.030;18.518;2023-03-20T08:00:08;100571.19;;;13.11;54.86
69214;BME280;56325;47.030;18.518;2023-03-20T08:02:43;100574.41;;;13.10;55.58
69214;BME280;56325;47.030;18.518;2023-03-20T08:05:19;100563.28;;;12.62;55.45
69214;BME280;56325;47.030;18.518;2023-03-20T08:07:57;100564.28;;;12.83;55.56
69214;BME280;56325;47.030;18.518;2023-03-20T08:10:32;100564.47;;;13.03;53.84
69214;BME280;56325;47.030;18.518;2023-03-20T08:13:06;100564.53;;;12.61;54.51
69214;BME280;56325;47.030;18.518;2023-03-20T08:15:41;100562.75;;;12.82;53.77
69214;BME280;56325;47.030;18.518;2023-03-20T08:18:15;100567.34;;;12.85;53.28
69214;BME280;56325;47.030;18.518;2023-03-20T08:20:51;100574.75;;;13.03;54.99
69214;BME280;56325;47.030;18.518;2023-03-20T08:23:26;100565.25;;;13.04;54.82
69214;BME280;56325;47.030;18.518;2023-03-20T08:26:00;100564.44;;;13.12;53.96
69214;BME280;56325;47.030;18.518;2023-03-20T08:28:35;100566.59;;;13.08;54.90
69214;BME280;56325;47.030;18.518;2023-03-20T08:31:20;100567.72;;;13.35;55.67
69214;BME280;56325;47.030;18.518;2023-03-20T08:33:55;100574.41;;;13.43;52.55
69214;BME280;56325;47.030;18.518;2023-03-20T08:36:31;100577.53;;;13.36;52.82
69214;BME280;56325;47.030;18.518;2023-03-20T08:39:05;100574.81;;;13.27;53.49
69214;BME280;56325;47.030;18.518;2023-03-20T08:41:40;100575.25;;;13.34;51.92
69214;BME280;56325;47.030;18.518;2023-03-20T08:44:17;100569.72;;;13.58;50.38
69214;BME280;56325;47.030;18.518;2023-03-20T08:46:52;100578.94;;;13.55;50.80
69214;BME280;56325;47.030;18.518;2023-03-20T08:49:26;100585.94;;;13.65;50.44
69214;BME280;56325;47.030;18.518;2023-03-20T08:52:03;100575.13;;;13.76;49.41
69214;BME280;56325;47.030;18.518;2023-03-20T08:54:38;100581.03;;;13.84;50.24
69214;BME280;56325;47.030;18.518;2023-03-20T08:57:12;100577.91;;;14.06;50.38
69214;BME280;56325;47.030;18.518;2023-03-20T08:59:47;100578.03;;;14.26;49.01
69214;BME280;56325;47.030;18.518;2023-03-20T09:02:21;100584.47;;;14.47;49.08
69214;BME280;56325;47.030;18.518;2023-03-20T09:04:56;100585.69;;;15.25;67.37
69214;BME280;56325;47.030;18.518;2023-03-20T09:07:32;100590.38;;;15.19;50.44
69214;BME280;56325;47.030;18.518;2023-03-20T09:10:08;100591.00;;;15.29;47.76
69214;BME280;56325;47.030;18.518;2023-03-20T09:12:43;100587.25;;;15.12;48.25
69214;BME280;56325;47.030;18.518;2023-03-20T09:15:18;100593.91;;;15.20;49.45
69214;BME280;56325;47.030;18.518;2023-03-20T09:17:53;100600.41;;;15.17;48.69
69214;BME280;56325;47.030;18.518;2023-03-20T09:20:27;100600.31;;;15.11;47.32
69214;BME280;56325;47.030;18.518;2023-03-20T09:23:03;100594.34;;;15.33;47.68
69214;BME280;56325;47.030;18.518;2023-03-20T09:25:38;100595.78;;;15.28;46.86
69214;BME280;56325;47.030;18.518;2023-03-20T09:28:13;100601.25;;;15.23;47.22
69214;BME280;56325;47.030;18.518;2023-03-20T09:30:47;100592.78;;;16.33;57.68
69214;BME280;56325;47.030;18.518;2023-03-20T09:33:22;100594.84;;;15.72;46.37
69214;BME280;56325;47.030;18.518;2023-03-20T09:35:56;100583.88;;;15.57;47.69
69214;BME280;56325;47.030;18.518;2023-03-20T09:38:32;100597.84;;;15.68;48.57
69214;BME280;56325;47.030;18.518;2023-03-20T09:41:13;100592.56;;;15.70;45.89
69214;BME280;56325;47.030;18.518;2023-03-20T09:43:59;100593.47;;;15.41;46.33
69214;BME280;56325;47.030;18.518;2023-03-20T09:46:50;100591.94;;;15.40;46.96
69214;BME280;56325;47.030;18.518;2023-03-20T09:49:58;100590.63;;;15.56;47.72
69214;BME280;56325;47.030;18.518;2023-03-20T09:52:37;100584.47;;;15.67;46.64
69214;BME280;56325;47.030;18.518;2023-03-20T09:55:16;100589.78;;;15.50;47.43
69214;BME280;56325;47.030;18.518;2023-03-20T09:57:56;100590.75;;;15.88;47.54
69214;BME280;56325;47.030;18.518;2023-03-20T10:00:33;100584.62;;;16.04;45.39
69214;BME280;56325;47.030;18.518;2023-03-20T10:03:16;100582.53;;;16.19;51.35
69214;BME280;56325;47.030;18.518;2023-03-20T10:05:56;100579.25;;;16.47;49.26
69214;BME280;56325;47.030;18.518;2023-03-20T10:08:36;100582.09;;;16.26;46.31
69214;BME280;56325;47.030;18.518;2023-03-20T10:11:23;100582.59;;;16.25;44.66
69214;BME280;56325;47.030;18.518;2023-03-20T10:14:27;100576.00;;;16.22;45.12
69214;BME280;56325;47.030;18.518;2023-03-20T10:17:17;100573.00;;;16.26;45.36
69214;BME280;56325;47.030;18.518;2023-03-20T10:19:56;100577.41;;;16.12;43.51
69214;BME280;56325;47.030;18.518;2023-03-20T10:22:33;100576.59;;;16.32;44.83
69214;BME280;56325;47.030;18.518;2023-03-20T10:25:26;100575.59;;;16.92;56.33
69214;BME280;56325;47.030;18.518;2023-03-20T10:28:05;100577.84;;;16.88;43.65
69214;BME280;56325;47.030;18.518;2023-03-20T10:30:55;100569.34;;;16.66;43.47
69214;BME280;56325;47.030;18.518;2023-03-20T10:33:45;100569.03;;;16.64;42.83
69214;BME280;56325;47.030;18.518;2023-03-20T10:36:37;100563.28;;;16.67;43.55
69214;BME280;56325;47.030;18.518;2023-03-20T10:39:19;100565.22;;;16.87;42.40
69214;BME280;56325;47.030;18.518;2023-03-20T10:41:58;100568.03;;;16.93;39.96
69214;BME280;56325;47.030;18.518;2023-03-20T10:44:38;100567.78;;;16.96;40.11
69214;BME280;56325;47.030;18.518;2023-03-20T10:47:17;100563.97;;;16.88;40.46
69214;BME280;56325;47.030;18.518;2023-03-20T10:49:56;100561.41;;;16.85;41.56
69214;BME280;56325;47.030;18.518;2023-03-20T10:52:34;100564.53;;;16.98;42.08
69214;BME280;56325;47.030;18.518;2023-03-20T10:55:11;100572.91;;;17.03;40.48
69214;BME280;56325;47.030;18.518;2023-03-20T10:57:53;100556.78;;;17.13;40.68
69214;BME280;56325;47.030;18.518;2023-03-20T11:00:30;100567.06;;;17.01;41.37
69214;BME280;56325;47.030;18.518;2023-03-20T11:03:06;100564.75;;;16.94;40.71
69214;BME280;56325;47.030;18.518;2023-03-20T11:05:53;100562.50;;;16.98;41.43
69214;BME280;56325;47.030;18.518;2023-03-20T11:08:46;100554.81;;;17.19;41.06
69214;BME280;56325;47.030;18.518;2023-03-20T11:11:24;100551.28;;;17.19;40.30
69214;BME280;56325;47.030;18.518;2023-03-20T11:14:09;100556.88;;;17.30;39.36
69214;BME280;56325;47.030;18.518;2023-03-20T11:16:53;100549.47;;;17.16;39.92
69214;BME280;56325;47.030;18.518;2023-03-20T11:19:31;100544.19;;;17.18;38.82
69214;BME280;56325;47.030;18.518;2023-03-20T11:22:08;100542.22;;;17.29;39.97
69214;BME280;56325;47.030;18.518;2023-03-20T11:24:45;100548.84;;;17.43;39.86
69214;BME280;56325;47.030;18.518;2023-03-20T11:27:24;100541.94;;;17.22;38.61
69214;BME280;56325;47.030;18.518;2023-03-20T11:30:00;100543.50;;;17.40;39.25
69214;BME280;56325;47.030;18.518;2023-03-20T11:32:40;100540.72;;;17.40;39.16
69214;BME280;56325;47.030;18.518;2023-03-20T11:35:21;100539.94;;;17.28;37.56
69214;BME280;56325;47.030;18.518;2023-03-20T11:38:07;100542.66;;;17.17;38.09
69214;BME280;56325;47.030;18.518;2023-03-20T11:40:42;100537.72;;;17.43;38.85
69214;BME280;56325;47.030;18.518;2023-03-20T11:43:18;100538.87;;;17.74;38.92
69214;BME280;56325;47.030;18.518;2023-03-20T11:45:55;100537.41;;;17.95;40.14
69214;BME280;56325;47.030;18.518;2023-03-20T11:48:38;100533.69;;;17.50;37.51
69214;BME280;56325;47.030;18.518;2023-03-20T11:51:16;100527.53;;;17.83;38.42
69214;BME280;56325;47.030;18.518;2023-03-20T11:53:58;100532.84;;;17.92;38.38
69214;BME280;56325;47.030;18.518;2023-03-20T11:56:34;100529.00;;;17.67;38.79
69214;BME280;56325;47.030;18.518;2023-03-20T11:59:12;100518.13;;;17.69;36.83
69214;BME280;56325;47.030;18.518;2023-03-20T12:01:51;100522.69;;;17.72;38.98
69214;BME280;56325;47.030;18.518;2023-03-20T12:04:29;100514.38;;;17.89;38.24
69214;BME280;56325;47.030;18.518;2023-03-20T12:07:07;100514.25;;;17.55;37.78
69214;BME280;56325;47.030;18.518;2023-03-20T12:09:47;100510.47;;;17.53;38.36
69214;BME280;56325;47.030;18.518;2023-03-20T12:12:33;100511.75;;;17.57;39.08
69214;BME280;56325;47.030;18.518;2023-03-20T12:15:15;100508.41;;;17.48;39.24
69214;BME280;56325;47.030;18.518;2023-03-20T12:17:54;100508.69;;;17.50;38.78
69214;BME280;56325;47.030;18.518;2023-03-20T12:20:37;100500.31;;;17.44;39.70
69214;BME280;56325;47.030;18.518;2023-03-20T12:23:20;100503.91;;;17.61;37.97
69214;BME280;56325;47.030;18.518;2023-03-20T12:26:00;100500.34;;;17.50;38.59
69214;BME280;56325;47.030;18.518;2023-03-20T12:28:40;100494.78;;;17.50;38.08
69214;BME280;56325;47.030;18.518;2023-03-20T12:31:21;100497.00;;;17.34;37.81
69214;BME280;56325;47.030;18.518;2023-03-20T12:33:59;100489.22;;;17.50;39.20
69214;BME280;56325;47.030;18.518;2023-03-20T12:36:41;100494.81;;;17.55;39.19
69214;BME280;56325;47.030;18.518;2023-03-20T12:39:18;100487.03;;;17.71;38.12
69214;BME280;56325;47.030;18.518;2023-03-20T12:42:04;100493.84;;;17.69;38.75
69214;BME280;56325;47.030;18.518;2023-03-20T12:44:47;100480.63;;;17.53;42.63
69214;BME280;56325;47.030;18.518;2023-03-20T12:47:45;100475.16;;;17.81;38.80
69214;BME280;56325;47.030;18.518;2023-03-20T12:50:30;100484.31;;;18.10;39.35
69214;BME280;56325;47.030;18.518;2023-03-20T12:56:18;100479.75;;;17.90;39.44
69214;BME280;56325;47.030;18.518;2023-03-20T12:58:59;100477.75;;;18.18;37.66
69214;BME280;56325;47.030;18.518;2023-03-20T13:01:43;100470.63;;;18.23;36.85
69214;BME280;56325;47.030;18.518;2023-03-20T13:04:45;100475.44;;;18.22;36.84
69214;BME280;56325;47.030;18.518;2023-03-20T13:07:36;100464.03;;;18.71;37.98
69214;BME280;56325;47.030;18.518;2023-03-20T13:10:20;100473.41;;;18.73;38.28
69214;BME280;56325;47.030;18.518;2023-03-20T13:13:02;100466.81;;;18.82;35.97
69214;BME280;56325;47.030;18.518;2023-03-20T13:15:53;100464.28;;;18.78;36.70
69214;BME280;56325;47.030;18.518;2023-03-20T13:18:43;100459.66;;;18.97;37.44
69214;BME280;56325;47.030;18.518;2023-03-20T13:21:26;100466.38;;;19.24;44.81
69214;BME280;56325;47.030;18.518;2023-03-20T13:24:14;100452.47;;;19.19;36.78
69214;BME280;56325;47.030;18.518;2023-03-20T13:26:57;100461.69;;;18.97;36.25
69214;BME280;56325;47.030;18.518;2023-03-20T13:29:43;100453.34;;;18.97;36.63
69214;BME280;56325;47.030;18.518;2023-03-20T13:32:30;100457.41;;;18.85;41.83
69214;BME280;56325;47.030;18.518;2023-03-20T13:35:34;100452.47;;;19.19;36.86
69214;BME280;56325;47.030;18.518;2023-03-20T13:38:16;100446.50;;;19.45;36.02
69214;BME280;56325;47.030;18.518;2023-03-20T13:40:57;100448.75;;;19.57;35.34
69214;BME280;56325;47.030;18.518;2023-03-20T13:43:38;100445.97;;;19.57;35.99
69214;BME280;56325;47.030;18.518;2023-03-20T13:46:16;100451.56;;;19.52;36.66
69214;BME280;56325;47.030;18.518;2023-03-20T13:48:57;100443.69;;;19.50;37.34
69214;BME280;56325;47.030;18.518;2023-03-20T13:51:36;100436.72;;;19.27;36.10
69214;BME280;56325;47.030;18.518;2023-03-20T13:54:20;100446.81;;;19.36;36.09
69214;BME280;56325;47.030;18.518;2023-03-20T13:57:09;100443.28;;;18.66;36.61
69214;BME280;56325;47.030;18.518;2023-03-20T13:59:57;100448.09;;;18.65;38.23